sensor_id;sensor_type;location;lat;lon;timestamp;P1;durP1;ratioP1;P2;durP2;ratioP2
7957;SDS011;4024;52.172;5.378;2023-04-03T00:01:21;4.97;;;2.40;;
7957;SDS011;4024;52.172;5.378;2023-04-03T00:03:50;2.93;;;2.00;;
7957;SDS011;4024;52.172;5.378;2023-04-03T00:06:26;5.77;;;2.40;;
7957;SDS011;4024;52.172;5.378;2023-04-03T00:08:54;3.73;;;2.10;;
7957;SDS011;4024;52.172;5.378;2023-04-03T00:13:55;3.33;;;2.23;;
7957;SDS011;4024;52.172;5.378;2023-04-03T00:16:20;3.17;;;2.40;;
7957;SDS011;4024;52.172;5.378;2023-04-03T00:21:14;3.57;;;2.63;;
7957;SDS011;4024;52.172;5.378;2023-04-03T00:23:40;3.33;;;2.33;;
7957;SDS011;4024;52.172;5.378;2023-04-03T00:26:06;2.70;;;2.20;;
7957;SDS011;4024;52.172;5.378;2023-04-03T00:28:32;2.20;;;2.00;;
7957;SDS011;4024;52.172;5.378;2023-04-03T00:30:59;3.60;;;2.30;;
7957;SDS011;4024;52.172;5.378;2023-04-03T00:33:25;4.13;;;2.00;;
7957;SDS011;4024;52.172;5.378;2023-04-03T00:35:50;2.90;;;2.00;;
7957;SDS011;4024;52.172;5.378;2023-04-03T00:38:16;3.90;;;2.20;;
7957;SDS011;4024;52.172;5.378;2023-04-03T00:40:47;3.70;;;2.40;;
7957;SDS011;4024;52.172;5.378;2023-04-03T00:43:16;3.17;;;2.40;;
7957;SDS011;4024;52.172;5.378;2023-04-03T00:50:57;3.40;;;2.40;;
7957;SDS011;4024;52.172;5.378;2023-04-03T00:53:26;2.27;;;1.90;;
7957;SDS011;4024;52.172;5.378;2023-04-03T00:55:55;2.67;;;2.10;;
7957;SDS011;4024;52.172;5.378;2023-04-03T00:58:22;3.10;;;2.50;;
7957;SDS011;4024;52.172;5.378;2023-04-03T01:01:12;3.20;;;2.27;;
7957;SDS011;4024;52.172;5.378;2023-04-03T01:03:41;6.53;;;2.50;;
7957;SDS011;4024;52.172;5.378;2023-04-03T01:06:07;3.47;;;2.23;;
7957;SDS011;4024;52.172;5.378;2023-04-03T01:08:33;2.50;;;2.13;;
7957;SDS011;4024;52.172;5.378;2023-04-03T01:10:59;4.60;;;2.40;;
7957;SDS011;4024;52.172;5.378;2023-04-03T01:13:26;3.67;;;2.20;;
7957;SDS011;4024;52.172;5.378;2023-04-03T01:15:57;4.83;;;2.60;;
7957;SDS011;4024;52.172;5.378;2023-04-03T01:18:26;4.13;;;2.30;;
7957;SDS011;4024;52.172;5.378;2023-04-03T01:26:33;5.80;;;2.67;;
7957;SDS011;4024;52.172;5.378;2023-04-03T01:29:00;2.87;;;2.00;;
7957;SDS011;4024;52.172;5.378;2023-04-03T01:34:01;3.37;;;2.60;;
7957;SDS011;4024;52.172;5.378;2023-04-03T01:36:29;5.13;;;2.40;;
7957;SDS011;4024;52.172;5.378;2023-04-03T01:38:57;6.10;;;2.40;;
7957;SDS011;4024;52.172;5.378;2023-04-03T01:41:24;3.33;;;2.17;;
7957;SDS011;4024;52.172;5.378;2023-04-03T01:43:51;2.80;;;2.27;;
7957;SDS011;4024;52.172;5.378;2023-04-03T01:46:16;4.50;;;2.43;;
7957;SDS011;4024;52.172;5.378;2023-04-03T01:48:43;5.00;;;2.40;;
7957;SDS011;4024;52.172;5.378;2023-04-03T01:51:08;4.07;;;2.27;;
7957;SDS011;4024;52.172;5.378;2023-04-03T01:53:35;3.87;;;2.70;;
7957;SDS011;4024;52.172;5.378;2023-04-03T01:56:00;5.60;;;2.90;;
7957;SDS011;4024;52.172;5.378;2023-04-03T01:58:26;3.60;;;2.50;;
7957;SDS011;4024;52.172;5.378;2023-04-03T02:00:52;3.57;;;2.50;;
7957;SDS011;4024;52.172;5.378;2023-04-03T02:03:18;4.93;;;2.70;;
7957;SDS011;4024;52.172;5.378;2023-04-03T02:05:44;2.67;;;2.30;;
7957;SDS011;4024;52.172;5.378;2023-04-03T02:08:10;5.70;;;2.50;;
7957;SDS011;4024;52.172;5.378;2023-04-03T02:10:36;3.67;;;2.60;;
7957;SDS011;4024;52.172;5.378;2023-04-03T02:13:01;3.73;;;2.50;;
7957;SDS011;4024;52.172;5.378;2023-04-03T02:15:27;4.90;;;2.60;;
7957;SDS011;4024;52.172;5.378;2023-04-03T02:17:53;2.80;;;2.40;;
7957;SDS011;4024;52.172;5.378;2023-04-03T02:20:18;5.20;;;2.73;;
7957;SDS011;4024;52.172;5.378;2023-04-03T02:22:45;3.17;;;2.40;;
7957;SDS011;4024;52.172;5.378;2023-04-03T02:25:10;3.47;;;2.50;;
7957;SDS011;4024;52.172;5.378;2023-04-03T02:27:37;3.03;;;2.60;;
7957;SDS011;4024;52.172;5.378;2023-04-03T02:30:03;4.07;;;3.00;;
7957;SDS011;4024;52.172;5.378;2023-04-03T02:32:30;4.07;;;2.50;;
7957;SDS011;4024;52.172;5.378;2023-04-03T02:34:56;5.47;;;3.00;;
7957;SDS011;4024;52.172;5.378;2023-04-03T02:37:21;3.73;;;2.60;;
7957;SDS011;4024;52.172;5.378;2023-04-03T02:39:47;3.80;;;2.53;;
7957;SDS011;4024;52.172;5.378;2023-04-03T02:42:13;5.23;;;2.50;;
7957;SDS011;4024;52.172;5.378;2023-04-03T02:44:39;4.03;;;2.70;;
7957;SDS011;4024;52.172;5.378;2023-04-03T02:47:04;4.97;;;2.37;;
7957;SDS011;4024;52.172;5.378;2023-04-03T02:49:30;5.43;;;2.90;;
7957;SDS011;4024;52.172;5.378;2023-04-03T02:51:56;4.93;;;2.50;;
7957;SDS011;4024;52.172;5.378;2023-04-03T02:54:21;4.93;;;2.43;;
7957;SDS011;4024;52.172;5.378;2023-04-03T02:56:48;4.03;;;2.20;;
7957;SDS011;4024;52.172;5.378;2023-04-03T02:59:14;4.17;;;2.50;;
7957;SDS011;4024;52.172;5.378;2023-04-03T03:01:40;4.80;;;2.50;;
7957;SDS011;4024;52.172;5.378;2023-04-03T03:04:05;5.93;;;2.37;;
7957;SDS011;4024;52.172;5.378;2023-04-03T03:06:31;4.73;;;2.50;;
7957;SDS011;4024;52.172;5.378;2023-04-03T03:08:57;4.80;;;2.43;;
7957;SDS011;4024;52.172;5.378;2023-04-03T03:11:22;5.47;;;2.60;;
7957;SDS011;4024;52.172;5.378;2023-04-03T03:13:48;5.07;;;2.90;;
7957;SDS011;4024;52.172;5.378;2023-04-03T03:16:14;4.50;;;2.43;;
7957;SDS011;4024;52.172;5.378;2023-04-03T03:18:40;3.40;;;2.50;;
7957;SDS011;4024;52.172;5.378;2023-04-03T03:21:06;5.87;;;2.67;;
7957;SDS011;4024;52.172;5.378;2023-04-03T03:23:31;7.37;;;2.73;;
7957;SDS011;4024;52.172;5.378;2023-04-03T03:25:58;5.27;;;2.40;;
7957;SDS011;4024;52.172;5.378;2023-04-03T03:28:31;6.63;;;2.80;;
7957;SDS011;4024;52.172;5.378;2023-04-03T03:30:58;4.50;;;2.67;;
7957;SDS011;4024;52.172;5.378;2023-04-03T03:33:24;4.00;;;2.50;;
7957;SDS011;4024;52.172;5.378;2023-04-03T03:35:50;3.87;;;2.53;;
7957;SDS011;4024;52.172;5.378;2023-04-03T03:38:17;5.47;;;2.67;;
7957;SDS011;4024;52.172;5.378;2023-04-03T03:40:43;4.80;;;2.80;;
7957;SDS011;4024;52.172;5.378;2023-04-03T03:43:08;6.87;;;2.47;;
7957;SDS011;4024;52.172;5.378;2023-04-03T03:45:34;8.33;;;3.17;;
7957;SDS011;4024;52.172;5.378;2023-04-03T03:48:00;5.17;;;2.63;;
7957;SDS011;4024;52.172;5.378;2023-04-03T03:50:26;5.03;;;2.77;;
7957;SDS011;4024;52.172;5.378;2023-04-03T03:52:52;4.63;;;2.80;;
7957;SDS011;4024;52.172;5.378;2023-04-03T03:55:17;5.93;;;2.83;;
7957;SDS011;4024;52.172;5.378;2023-04-03T03:57:43;7.00;;;2.73;;
7957;SDS011;4024;52.172;5.378;2023-04-03T04:00:09;5.77;;;2.80;;
7957;SDS011;4024;52.172;5.378;2023-04-03T04:02:35;5.93;;;2.70;;
7957;SDS011;4024;52.172;5.378;2023-04-03T04:05:01;3.13;;;2.40;;
7957;SDS011;4024;52.172;5.378;2023-04-03T04:07:26;4.47;;;2.67;;
7957;SDS011;4024;52.172;5.378;2023-04-03T04:09:54;5.17;;;3.03;;
7957;SDS011;4024;52.172;5.378;2023-04-03T04:12:19;6.23;;;3.20;;
7957;SDS011;4024;52.172;5.378;2023-04-03T04:14:45;6.20;;;3.03;;
7957;SDS011;4024;52.172;5.378;2023-04-03T04:17:11;6.87;;;2.80;;
7957;SDS011;4024;52.172;5.378;2023-04-03T04:19:38;6.50;;;3.27;;
7957;SDS011;4024;52.172;5.378;2023-04-03T04:22:03;5.00;;;3.33;;
7957;SDS011;4024;52.172;5.378;2023-04-03T04:24:29;5.70;;;2.90;;
7957;SDS011;4024;52.172;5.378;2023-04-03T04:26:54;6.27;;;3.00;;
7957;SDS011;4024;52.172;5.378;2023-04-03T04:29:20;4.93;;;3.20;;
7957;SDS011;4024;52.172;5.378;2023-04-03T04:31:46;6.00;;;3.00;;
7957;SDS011;4024;52.172;5.378;2023-04-03T04:34:11;7.87;;;3.60;;
7957;SDS011;4024;52.172;5.378;2023-04-03T04:36:38;3.67;;;2.40;;
7957;SDS011;4024;52.172;5.378;2023-04-03T04:39:04;8.67;;;3.13;;
7957;SDS011;4024;52.172;5.378;2023-04-03T04:41:30;4.57;;;3.10;;
7957;SDS011;4024;52.172;5.378;2023-04-03T04:43:56;4.63;;;2.80;;
7957;SDS011;4024;52.172;5.378;2023-04-03T04:46:22;6.23;;;3.07;;
7957;SDS011;4024;52.172;5.378;2023-04-03T04:48:48;5.10;;;3.17;;
7957;SDS011;4024;52.172;5.378;2023-04-03T04:51:13;4.70;;;2.77;;
7957;SDS011;4024;52.172;5.378;2023-04-03T04:53:40;5.90;;;2.90;;
7957;SDS011;4024;52.172;5.378;2023-04-03T04:56:05;5.60;;;3.10;;
7957;SDS011;4024;52.172;5.378;2023-04-03T04:58:31;5.60;;;3.10;;
7957;SDS011;4024;52.172;5.378;2023-04-03T05:01:07;7.43;;;3.63;;
7957;SDS011;4024;52.172;5.378;2023-04-03T05:03:34;6.93;;;3.63;;
7957;SDS011;4024;52.172;5.378;2023-04-03T05:06:00;6.20;;;3.50;;
7957;SDS011;4024;52.172;5.378;2023-04-03T05:08:26;5.03;;;2.83;;
7957;SDS011;4024;52.172;5.378;2023-04-03T05:10:52;5.23;;;2.93;;
7957;SDS011;4024;52.172;5.378;2023-04-03T05:13:18;4.10;;;2.80;;
7957;SDS011;4024;52.172;5.378;2023-04-03T05:15:44;8.67;;;3.30;;
7957;SDS011;4024;52.172;5.378;2023-04-03T05:18:10;5.57;;;3.10;;
7957;SDS011;4024;52.172;5.378;2023-04-03T05:20:35;7.67;;;3.30;;
7957;SDS011;4024;52.172;5.378;2023-04-03T05:23:02;7.80;;;3.10;;
7957;SDS011;4024;52.172;5.378;2023-04-03T05:25:27;4.93;;;2.93;;
7957;SDS011;4024;52.172;5.378;2023-04-03T05:27:53;7.03;;;3.80;;
7957;SDS011;4024;52.172;5.378;2023-04-03T05:30:18;7.63;;;3.53;;
7957;SDS011;4024;52.172;5.378;2023-04-03T05:32:44;7.53;;;3.40;;
7957;SDS011;4024;52.172;5.378;2023-04-03T05:35:10;4.93;;;2.97;;
7957;SDS011;4024;52.172;5.378;2023-04-03T05:37:36;6.73;;;3.47;;
7957;SDS011;4024;52.172;5.378;2023-04-03T05:40:02;5.23;;;2.70;;
7957;SDS011;4024;52.172;5.378;2023-04-03T05:42:29;3.73;;;2.70;;
7957;SDS011;4024;52.172;5.378;2023-04-03T05:44:54;6.40;;;3.10;;
7957;SDS011;4024;52.172;5.378;2023-04-03T05:47:20;4.33;;;3.00;;
7957;SDS011;4024;52.172;5.378;2023-04-03T05:49:46;6.40;;;2.90;;
7957;SDS011;4024;52.172;5.378;2023-04-03T05:52:31;4.90;;;3.00;;
7957;SDS011;4024;52.172;5.378;2023-04-03T05:55:02;5.13;;;2.80;;
7957;SDS011;4024;52.172;5.378;2023-04-03T05:57:27;10.10;;;3.37;;
7957;SDS011;4024;52.172;5.378;2023-04-03T05:59:53;7.17;;;2.97;;
7957;SDS011;4024;52.172;5.378;2023-04-03T06:02:19;8.23;;;2.90;;
7957;SDS011;4024;52.172;5.378;2023-04-03T06:04:47;8.57;;;3.30;;
7957;SDS011;4024;52.172;5.378;2023-04-03T06:07:13;9.67;;;3.53;;
7957;SDS011;4024;52.172;5.378;2023-04-03T06:09:41;6.87;;;3.23;;
7957;SDS011;4024;52.172;5.378;2023-04-03T06:12:07;9.77;;;3.03;;
7957;SDS011;4024;52.172;5.378;2023-04-03T06:14:34;6.40;;;3.27;;
7957;SDS011;4024;52.172;5.378;2023-04-03T06:17:00;3.90;;;2.73;;
7957;SDS011;4024;52.172;5.378;2023-04-03T06:19:26;4.40;;;3.10;;
7957;SDS011;4024;52.172;5.378;2023-04-03T06:21:52;9.87;;;3.43;;
7957;SDS011;4024;52.172;5.378;2023-04-03T06:24:17;6.87;;;3.10;;
7957;SDS011;4024;52.172;5.378;2023-04-03T06:26:44;5.77;;;3.40;;
7957;SDS011;4024;52.172;5.378;2023-04-03T06:29:11;4.57;;;3.00;;
7957;SDS011;4024;52.172;5.378;2023-04-03T06:31:36;7.97;;;3.27;;
7957;SDS011;4024;52.172;5.378;2023-04-03T06:34:03;7.70;;;3.13;;
7957;SDS011;4024;52.172;5.378;2023-04-03T06:36:29;5.40;;;3.60;;
7957;SDS011;4024;52.172;5.378;2023-04-03T06:38:54;5.57;;;3.17;;
7957;SDS011;4024;52.172;5.378;2023-04-03T06:41:20;5.83;;;3.17;;
7957;SDS011;4024;52.172;5.378;2023-04-03T06:43:46;7.70;;;3.40;;
7957;SDS011;4024;52.172;5.378;2023-04-03T06:46:15;5.03;;;3.23;;
7957;SDS011;4024;52.172;5.378;2023-04-03T06:48:42;4.13;;;3.03;;
7957;SDS011;4024;52.172;5.378;2023-04-03T06:51:18;3.70;;;2.80;;
7957;SDS011;4024;52.172;5.378;2023-04-03T06:53:50;7.13;;;3.50;;
7957;SDS011;4024;52.172;5.378;2023-04-03T06:56:17;4.83;;;3.00;;
7957;SDS011;4024;52.172;5.378;2023-04-03T06:58:43;7.43;;;3.03;;
7957;SDS011;4024;52.172;5.378;2023-04-03T07:01:10;7.47;;;3.03;;
7957;SDS011;4024;52.172;5.378;2023-04-03T07:03:37;5.80;;;2.97;;
7957;SDS011;4024;52.172;5.378;2023-04-03T07:06:04;6.07;;;3.13;;
7957;SDS011;4024;52.172;5.378;2023-04-03T07:08:32;8.37;;;3.47;;
7957;SDS011;4024;52.172;5.378;2023-04-03T07:10:59;6.07;;;3.17;;
7957;SDS011;4024;52.172;5.378;2023-04-03T07:13:25;7.30;;;3.60;;
7957;SDS011;4024;52.172;5.378;2023-04-03T07:15:51;7.43;;;3.57;;
7957;SDS011;4024;52.172;5.378;2023-04-03T07:18:17;5.90;;;2.90;;
7957;SDS011;4024;52.172;5.378;2023-04-03T07:20:43;11.07;;;3.57;;
7957;SDS011;4024;52.172;5.378;2023-04-03T07:23:09;5.47;;;3.30;;
7957;SDS011;4024;52.172;5.378;2023-04-03T07:25:35;10.23;;;3.60;;
7957;SDS011;4024;52.172;5.378;2023-04-03T07:28:01;8.23;;;3.10;;
7957;SDS011;4024;52.172;5.378;2023-04-03T07:30:27;6.37;;;3.43;;
7957;SDS011;4024;52.172;5.378;2023-04-03T07:32:52;8.03;;;3.30;;
7957;SDS011;4024;52.172;5.378;2023-04-03T07:35:18;8.87;;;3.27;;
7957;SDS011;4024;52.172;5.378;2023-04-03T07:37:44;7.23;;;3.23;;
7957;SDS011;4024;52.172;5.378;2023-04-03T07:40:09;9.37;;;3.07;;
7957;SDS011;4024;52.172;5.378;2023-04-03T07:42:35;8.57;;;3.60;;
7957;SDS011;4024;52.172;5.378;2023-04-03T07:45:02;5.23;;;3.40;;
7957;SDS011;4024;52.172;5.378;2023-04-03T07:47:29;7.33;;;3.67;;
7957;SDS011;4024;52.172;5.378;2023-04-03T07:49:55;8.97;;;3.47;;
7957;SDS011;4024;52.172;5.378;2023-04-03T07:52:22;7.00;;;2.93;;
7957;SDS011;4024;52.172;5.378;2023-04-03T07:54:47;8.13;;;3.07;;
7957;SDS011;4024;52.172;5.378;2023-04-03T07:57:13;5.00;;;2.80;;
7957;SDS011;4024;52.172;5.378;2023-04-03T07:59:39;5.03;;;3.00;;
7957;SDS011;4024;52.172;5.378;2023-04-03T08:02:07;6.57;;;3.00;;
7957;SDS011;4024;52.172;5.378;2023-04-03T08:04:34;5.23;;;2.83;;
7957;SDS011;4024;52.172;5.378;2023-04-03T08:07:00;4.47;;;2.40;;
7957;SDS011;4024;52.172;5.378;2023-04-03T08:09:26;5.30;;;2.80;;
7957;SDS011;4024;52.172;5.378;2023-04-03T08:11:51;3.33;;;2.50;;
7957;SDS011;4024;52.172;5.378;2023-04-03T08:14:18;4.67;;;2.40;;
7957;SDS011;4024;52.172;5.378;2023-04-03T08:16:45;5.37;;;2.73;;
7957;SDS011;4024;52.172;5.378;2023-04-03T08:19:11;4.60;;;2.40;;
7957;SDS011;4024;52.172;5.378;2023-04-03T08:21:39;3.93;;;2.37;;
7957;SDS011;4024;52.172;5.378;2023-04-03T08:24:06;3.67;;;2.50;;
7957;SDS011;4024;52.172;5.378;2023-04-03T08:26:32;4.90;;;2.50;;
7957;SDS011;4024;52.172;5.378;2023-04-03T08:28:58;5.03;;;2.40;;
7957;SDS011;4024;52.172;5.378;2023-04-03T08:31:23;4.17;;;2.50;;
7957;SDS011;4024;52.172;5.378;2023-04-03T08:33:49;4.30;;;2.10;;
7957;SDS011;4024;52.172;5.378;2023-04-03T08:38:48;4.37;;;2.20;;
7957;SDS011;4024;52.172;5.378;2023-04-03T08:41:16;3.67;;;2.37;;
7957;SDS011;4024;52.172;5.378;2023-04-03T08:44:02;6.53;;;2.10;;
7957;SDS011;4024;52.172;5.378;2023-04-03T08:52:11;4.33;;;2.57;;
7957;SDS011;4024;52.172;5.378;2023-04-03T08:57:32;5.37;;;2.27;;
7957;SDS011;4024;52.172;5.378;2023-04-03T09:00:03;3.00;;;2.00;;
7957;SDS011;4024;52.172;5.378;2023-04-03T09:02:54;2.37;;;1.70;;
7957;SDS011;4024;52.172;5.378;2023-04-03T09:10:46;3.27;;;1.80;;
7957;SDS011;4024;52.172;5.378;2023-04-03T09:13:19;3.33;;;1.70;;
7957;SDS011;4024;52.172;5.378;2023-04-03T09:19:07;1.40;;;1.30;;
7957;SDS011;4024;52.172;5.378;2023-04-03T09:21:36;2.20;;;1.60;;
7957;SDS011;4024;52.172;5.378;2023-04-03T09:24:07;2.93;;;1.73;;
7957;SDS011;4024;52.172;5.378;2023-04-03T09:29:42;2.67;;;1.40;;
7957;SDS011;4024;52.172;5.378;2023-04-03T09:32:30;1.90;;;1.40;;
7957;SDS011;4024;52.172;5.378;2023-04-03T09:37:37;3.27;;;1.63;;
7957;SDS011;4024;52.172;5.378;2023-04-03T09:40:03;2.13;;;1.30;;
7957;SDS011;4024;52.172;5.378;2023-04-03T09:42:30;1.70;;;1.60;;
7957;SDS011;4024;52.172;5.378;2023-04-03T09:47:30;2.00;;;1.50;;
7957;SDS011;4024;52.172;5.378;2023-04-03T09:52:41;1.33;;;1.23;;
7957;SDS011;4024;52.172;5.378;2023-04-03T09:55:16;1.30;;;1.17;;
7957;SDS011;4024;52.172;5.378;2023-04-03T09:57:44;1.97;;;1.50;;
7957;SDS011;4024;52.172;5.378;2023-04-03T10:00:21;1.50;;;1.40;;
7957;SDS011;4024;52.172;5.378;2023-04-03T10:02:57;1.70;;;1.37;;
7957;SDS011;4024;52.172;5.378;2023-04-03T10:10:44;1.87;;;1.40;;
7957;SDS011;4024;52.172;5.378;2023-04-03T10:13:12;1.67;;;1.30;;
7957;SDS011;4024;52.172;5.378;2023-04-03T10:15:45;2.07;;;1.53;;
7957;SDS011;4024;52.172;5.378;2023-04-03T10:24:25;2.03;;;1.40;;
7957;SDS011;4024;52.172;5.378;2023-04-03T10:27:09;1.20;;;1.10;;
7957;SDS011;4024;52.172;5.378;2023-04-03T10:29:48;1.40;;;1.30;;
7957;SDS011;4024;52.172;5.378;2023-04-03T10:32:48;3.33;;;1.60;;
7957;SDS011;4024;52.172;5.378;2023-04-03T10:40:45;2.03;;;1.33;;
7957;SDS011;4024;52.172;5.378;2023-04-03T10:43:49;1.63;;;1.20;;
7957;SDS011;4024;52.172;5.378;2023-04-03T10:46:43;1.33;;;1.23;;
7957;SDS011;4024;52.172;5.378;2023-04-03T10:51:47;2.10;;;1.50;;
7957;SDS011;4024;52.172;5.378;2023-04-03T10:56:52;1.63;;;1.30;;
7957;SDS011;4024;52.172;5.378;2023-04-03T11:02:01;1.97;;;1.30;;
7957;SDS011;4024;52.172;5.378;2023-04-03T11:04:40;1.50;;;1.40;;
7957;SDS011;4024;52.172;5.378;2023-04-03T11:09:55;1.90;;;1.70;;
7957;SDS011;4024;52.172;5.378;2023-04-03T11:15:11;3.40;;;1.60;;
7957;SDS011;4024;52.172;5.378;2023-04-03T11:17:41;1.97;;;1.60;;
7957;SDS011;4024;52.172;5.378;2023-04-03T11:20:30;2.00;;;1.50;;
7957;SDS011;4024;52.172;5.378;2023-04-03T11:23:03;2.10;;;1.53;;
7957;SDS011;4024;52.172;5.378;2023-04-03T11:25:54;2.60;;;1.60;;
7957;SDS011;4024;52.172;5.378;2023-04-03T11:28:27;1.87;;;1.47;;
7957;SDS011;4024;52.172;5.378;2023-04-03T11:30:57;2.73;;;1.83;;
7957;SDS011;4024;52.172;5.378;2023-04-03T11:36:00;1.67;;;1.57;;
7957;SDS011;4024;52.172;5.378;2023-04-03T11:38:47;3.13;;;1.80;;
7957;SDS011;4024;52.172;5.378;2023-04-03T11:41:16;2.37;;;1.60;;
7957;SDS011;4024;52.172;5.378;2023-04-03T11:43:56;2.07;;;1.60;;
7957;SDS011;4024;52.172;5.378;2023-04-03T12:13:36;2.20;;;1.70;;
7957;SDS011;4024;52.172;5.378;2023-04-03T12:16:05;1.90;;;1.50;;
7957;SDS011;4024;52.172;5.378;2023-04-03T12:18:48;1.67;;;1.50;;
7957;SDS011;4024;52.172;5.378;2023-04-03T12:26:44;2.07;;;1.50;;
7957;SDS011;4024;52.172;5.378;2023-04-03T12:43:07;1.83;;;1.60;;
7957;SDS011;4024;52.172;5.378;2023-04-03T12:45:50;2.43;;;1.80;;
7957;SDS011;4024;52.172;5.378;2023-04-03T12:48:26;4.03;;;1.50;;
7957;SDS011;4024;52.172;5.378;2023-04-03T12:50:53;3.93;;;1.93;;
7957;SDS011;4024;52.172;5.378;2023-04-03T12:53:21;1.97;;;1.60;;
7957;SDS011;4024;52.172;5.378;2023-04-03T12:58:46;3.30;;;1.80;;
7957;SDS011;4024;52.172;5.378;2023-04-03T13:01:16;1.47;;;1.37;;
7957;SDS011;4024;52.172;5.378;2023-04-03T13:03:44;1.83;;;1.50;;
7957;SDS011;4024;52.172;5.378;2023-04-03T13:06:30;2.30;;;1.43;;
7957;SDS011;4024;52.172;5.378;2023-04-03T13:09:06;1.90;;;1.50;;
7957;SDS011;4024;52.172;5.378;2023-04-03T13:11:43;3.23;;;1.90;;
7957;SDS011;4024;52.172;5.378;2023-04-03T13:14:14;3.20;;;1.80;;
7957;SDS011;4024;52.172;5.378;2023-04-03T13:16:58;2.87;;;1.70;;
7957;SDS011;4024;52.172;5.378;2023-04-03T13:19:27;2.50;;;1.70;;
7957;SDS011;4024;52.172;5.378;2023-04-03T13:21:56;2.63;;;1.90;;
7957;SDS011;4024;52.172;5.378;2023-04-03T13:24:27;2.73;;;1.90;;
7957;SDS011;4024;52.172;5.378;2023-04-03T13:26:55;2.63;;;1.57;;
7957;SDS011;4024;52.172;5.378;2023-04-03T13:29:23;2.70;;;1.73;;
7957;SDS011;4024;52.172;5.378;2023-04-03T13:31:53;2.83;;;1.90;;
7957;SDS011;4024;52.172;5.378;2023-04-03T13:34:20;3.70;;;1.93;;
7957;SDS011;4024;52.172;5.378;2023-04-03T13:41:48;3.03;;;1.90;;
7957;SDS011;4024;52.172;5.378;2023-04-03T13:46:48;2.33;;;1.70;;
7957;SDS011;4024;52.172;5.378;2023-04-03T13:51:52;5.37;;;1.90;;
7957;SDS011;4024;52.172;5.378;2023-04-03T13:54:20;3.63;;;1.90;;
7957;SDS011;4024;52.172;5.378;2023-04-03T13:56:54;2.40;;;1.50;;
7957;SDS011;4024;52.172;5.378;2023-04-03T13:59:27;2.70;;;1.90;;
7957;SDS011;4024;52.172;5.378;2023-04-03T14:01:55;2.67;;;1.77;;
7957;SDS011;4024;52.172;5.378;2023-04-03T14:04:28;3.40;;;2.13;;
7957;SDS011;4024;52.172;5.378;2023-04-03T14:07:08;2.37;;;2.17;;
7957;SDS011;4024;52.172;5.378;2023-04-03T14:09:35;4.50;;;1.80;;
7957;SDS011;4024;52.172;5.378;2023-04-03T14:12:05;3.03;;;1.90;;
7957;SDS011;4024;52.172;5.378;2023-04-03T14:14:37;2.80;;;2.00;;
7957;SDS011;4024;52.172;5.378;2023-04-03T14:17:09;2.13;;;1.63;;
7957;SDS011;4024;52.172;5.378;2023-04-03T14:19:43;2.97;;;2.10;;
7957;SDS011;4024;52.172;5.378;2023-04-03T14:22:15;2.63;;;1.70;;
7957;SDS011;4024;52.172;5.378;2023-04-03T14:24:53;3.83;;;2.00;;
7957;SDS011;4024;52.172;5.378;2023-04-03T14:27:20;2.80;;;1.97;;
7957;SDS011;4024;52.172;5.378;2023-04-03T14:29:46;2.17;;;1.90;;
7957;SDS011;4024;52.172;5.378;2023-04-03T14:32:14;4.70;;;2.23;;
7957;SDS011;4024;52.172;5.378;2023-04-03T14:34:41;4.03;;;1.93;;
7957;SDS011;4024;52.172;5.378;2023-04-03T14:37:15;2.67;;;1.90;;
7957;SDS011;4024;52.172;5.378;2023-04-03T14:39:43;2.27;;;2.07;;
7957;SDS011;4024;52.172;5.378;2023-04-03T14:42:14;3.37;;;1.83;;
7957;SDS011;4024;52.172;5.378;2023-04-03T14:44:45;3.60;;;2.00;;
7957;SDS011;4024;52.172;5.378;2023-04-03T14:47:14;3.17;;;1.70;;
7957;SDS011;4024;52.172;5.378;2023-04-03T14:49:42;3.53;;;2.10;;
7957;SDS011;4024;52.172;5.378;2023-04-03T14:55:05;3.70;;;1.90;;
7957;SDS011;4024;52.172;5.378;2023-04-03T14:57:31;3.67;;;2.57;;
7957;SDS011;4024;52.172;5.378;2023-04-03T14:59:58;4.17;;;2.40;;
7957;SDS011;4024;52.172;5.378;2023-04-03T15:02:27;4.03;;;2.37;;
7957;SDS011;4024;52.172;5.378;2023-04-03T15:05:05;4.20;;;2.00;;
7957;SDS011;4024;52.172;5.378;2023-04-03T15:07:38;4.83;;;2.10;;
7957;SDS011;4024;52.172;5.378;2023-04-03T15:10:20;2.47;;;2.03;;
7957;SDS011;4024;52.172;5.378;2023-04-03T15:12:48;3.50;;;2.50;;
7957;SDS011;4024;52.172;5.378;2023-04-03T15:15:16;4.00;;;2.27;;
7957;SDS011;4024;52.172;5.378;2023-04-03T15:17:43;6.23;;;2.47;;
7957;SDS011;4024;52.172;5.378;2023-04-03T15:20:14;3.53;;;2.27;;
7957;SDS011;4024;52.172;5.378;2023-04-03T15:22:41;3.23;;;2.40;;
7957;SDS011;4024;52.172;5.378;2023-04-03T15:25:08;3.07;;;2.10;;
7957;SDS011;4024;52.172;5.378;2023-04-03T15:27:34;2.93;;;2.10;;
7957;SDS011;4024;52.172;5.378;2023-04-03T15:30:00;4.60;;;2.20;;
7957;SDS011;4024;52.172;5.378;2023-04-03T15:32:25;3.03;;;2.20;;
7957;SDS011;4024;52.172;5.378;2023-04-03T15:34:51;4.53;;;2.50;;
7957;SDS011;4024;52.172;5.378;2023-04-03T15:37:18;5.83;;;2.53;;
7957;SDS011;4024;52.172;5.378;2023-04-03T15:39:44;2.70;;;2.10;;
7957;SDS011;4024;52.172;5.378;2023-04-03T15:42:09;2.80;;;2.13;;
7957;SDS011;4024;52.172;5.378;2023-04-03T15:44:37;4.50;;;2.23;;
7957;SDS011;4024;52.172;5.378;2023-04-03T15:47:02;2.37;;;2.13;;
7957;SDS011;4024;52.172;5.378;2023-04-03T15:49:28;3.57;;;2.13;;
7957;SDS011;4024;52.172;5.378;2023-04-03T15:51:54;4.43;;;2.50;;
7957;SDS011;4024;52.172;5.378;2023-04-03T15:54:20;2.50;;;1.83;;
7957;SDS011;4024;52.172;5.378;2023-04-03T15:56:45;4.37;;;2.10;;
7957;SDS011;4024;52.172;5.378;2023-04-03T15:59:11;3.90;;;2.17;;
7957;SDS011;4024;52.172;5.378;2023-04-03T16:01:37;4.50;;;2.00;;
7957;SDS011;4024;52.172;5.378;2023-04-03T16:04:04;2.80;;;1.97;;
7957;SDS011;4024;52.172;5.378;2023-04-03T16:06:32;4.53;;;2.30;;
7957;SDS011;4024;52.172;5.378;2023-04-03T16:08:58;3.23;;;1.93;;
7957;SDS011;4024;52.172;5.378;2023-04-03T16:11:25;3.27;;;2.30;;
7957;SDS011;4024;52.172;5.378;2023-04-03T16:13:51;2.93;;;2.20;;
7957;SDS011;4024;52.172;5.378;2023-04-03T16:16:17;4.77;;;2.67;;
7957;SDS011;4024;52.172;5.378;2023-04-03T16:18:43;4.30;;;2.27;;
7957;SDS011;4024;52.172;5.378;2023-04-03T16:21:11;4.03;;;2.13;;
7957;SDS011;4024;52.172;5.378;2023-04-03T16:23:38;3.57;;;2.10;;
7957;SDS011;4024;52.172;5.378;2023-04-03T16:26:05;5.13;;;2.37;;
7957;SDS011;4024;52.172;5.378;2023-04-03T16:28:30;3.23;;;2.30;;
7957;SDS011;4024;52.172;5.378;2023-04-03T16:30:56;4.33;;;1.93;;
7957;SDS011;4024;52.172;5.378;2023-04-03T16:33:22;3.50;;;1.90;;
7957;SDS011;4024;52.172;5.378;2023-04-03T16:35:49;3.47;;;2.30;;
7957;SDS011;4024;52.172;5.378;2023-04-03T16:38:16;3.17;;;2.03;;
7957;SDS011;4024;52.172;5.378;2023-04-03T16:40:43;3.77;;;2.23;;
7957;SDS011;4024;52.172;5.378;2023-04-03T16:43:10;3.10;;;2.20;;
7957;SDS011;4024;52.172;5.378;2023-04-03T16:45:35;2.97;;;2.20;;
7957;SDS011;4024;52.172;5.378;2023-04-03T16:48:01;3.20;;;1.90;;
7957;SDS011;4024;52.172;5.378;2023-04-03T16:50:27;3.70;;;1.80;;
7957;SDS011;4024;52.172;5.378;2023-04-03T16:52:52;4.90;;;2.20;;
7957;SDS011;4024;52.172;5.378;2023-04-03T16:55:18;3.63;;;2.10;;
7957;SDS011;4024;52.172;5.378;2023-04-03T16:57:45;2.10;;;1.83;;
7957;SDS011;4024;52.172;5.378;2023-04-03T17:00:11;2.77;;;2.20;;
7957;SDS011;4024;52.172;5.378;2023-04-03T17:02:37;3.77;;;2.00;;
7957;SDS011;4024;52.172;5.378;2023-04-03T17:05:03;3.03;;;2.13;;
7957;SDS011;4024;52.172;5.378;2023-04-03T17:07:29;2.77;;;2.00;;
7957;SDS011;4024;52.172;5.378;2023-04-03T17:09:55;3.63;;;2.03;;
7957;SDS011;4024;52.172;5.378;2023-04-03T17:12:21;3.03;;;2.20;;
7957;SDS011;4024;52.172;5.378;2023-04-03T17:14:47;4.13;;;2.20;;
7957;SDS011;4024;52.172;5.378;2023-04-03T17:17:13;3.23;;;2.07;;
7957;SDS011;4024;52.172;5.378;2023-04-03T17:19:39;2.27;;;1.90;;
7957;SDS011;4024;52.172;5.378;2023-04-03T17:22:08;4.87;;;2.10;;
7957;SDS011;4024;52.172;5.378;2023-04-03T17:24:34;2.80;;;2.03;;
7957;SDS011;4024;52.172;5.378;2023-04-03T17:27:01;3.80;;;2.20;;
7957;SDS011;4024;52.172;5.378;2023-04-03T17:29:26;3.70;;;1.87;;
7957;SDS011;4024;52.172;5.378;2023-04-03T17:31:52;4.37;;;2.03;;
7957;SDS011;4024;52.172;5.378;2023-04-03T17:34:18;5.87;;;2.30;;
7957;SDS011;4024;52.172;5.378;2023-04-03T17:36:43;2.40;;;1.80;;
7957;SDS011;4024;52.172;5.378;2023-04-03T17:39:09;3.63;;;1.90;;
7957;SDS011;4024;52.172;5.378;2023-04-03T17:41:35;3.57;;;2.07;;
7957;SDS011;4024;52.172;5.378;2023-04-03T17:44:02;5.73;;;2.10;;
7957;SDS011;4024;52.172;5.378;2023-04-03T17:46:28;3.03;;;2.03;;